createdAt,value
2023-06-22T00:00:00.363Z,50.89
2023-06-22T00:02:26.922Z,50.93
2023-06-22T00:04:53.447Z,51.07
2023-06-22T00:07:20.016Z,51.18
2023-06-22T00:09:46.764Z,51.41
2023-06-22T00:12:13.221Z,51.40
2023-06-22T00:14:39.689Z,51.53
2023-06-22T00:17:06.238Z,51.47
2023-06-22T00:19:33.601Z,51.49
2023-06-22T00:22:01.201Z,51.40
2023-06-22T00:24:27.758Z,51.45
2023-06-22T00:26:54.764Z,51.42
2023-06-22T00:29:22.166Z,51.48
2023-06-22T00:31:49.596Z,51.70
2023-06-22T00:34:17.011Z,51.76
2023-06-22T00:36:43.514Z,52.04
2023-06-22T00:39:10.832Z,51.94
2023-06-22T00:41:37.299Z,51.94
2023-06-22T00:44:05.134Z,52.07
2023-06-22T00:46:31.836Z,52.11
2023-06-22T00:49:01.020Z,51.95
2023-06-22T00:51:28.781Z,51.92
2023-06-22T00:53:55.570Z,51.75
2023-06-22T00:56:25.983Z,52.26
2023-06-22T00:58:58.222Z,52.07
2023-06-22T01:01:25.038Z,52.22
2023-06-22T01:03:52.763Z,52.16
2023-06-22T01:06:28.087Z,51.99
2023-06-22T01:09:16.205Z,51.95
2023-06-22T01:11:47.894Z,52.14
2023-06-22T01:14:27.173Z,52.00
2023-06-22T01:16:58.071Z,52.34
2023-06-22T01:19:36.805Z,52.11
2023-06-22T01:22:06.287Z,52.42
2023-06-22T01:25:10.576Z,51.86
2023-06-22T01:27:57.715Z,52.44
2023-06-22T01:30:27.509Z,52.59
2023-06-22T01:32:56.497Z,52.46
2023-06-22T01:35:26.024Z,52.67
2023-06-22T01:37:53.120Z,52.77
2023-06-22T01:40:21.061Z,52.44
2023-06-22T01:42:49.196Z,52.49
2023-06-22T01:45:16.684Z,52.56
2023-06-22T01:47:43.569Z,52.46
2023-06-22T01:50:10.640Z,52.80
2023-06-22T01:52:37.296Z,52.75
2023-06-22T01:55:05.695Z,53.04
2023-06-22T01:57:32.953Z,52.76
2023-06-22T02:00:05.779Z,52.64
2023-06-22T02:03:16.488Z,52.68
2023-06-22T02:06:08.778Z,52.59
2023-06-22T02:08:47.366Z,52.88
2023-06-22T02:11:17.605Z,53.15
2023-06-22T02:13:44.349Z,53.12
2023-06-22T02:16:12.835Z,53.14
2023-06-22T02:18:47.281Z,53.06
2023-06-22T02:21:13.782Z,53.14
2023-06-22T02:23:40.236Z,53.21
2023-06-22T02:26:06.694Z,53.38
2023-06-22T02:28:33.162Z,53.48
2023-06-22T02:30:59.698Z,53.36
2023-06-22T02:33:26.154Z,53.49
2023-06-22T02:35:52.650Z,53.57
2023-06-22T02:38:20.421Z,53.29
2023-06-22T02:40:47.590Z,53.52
2023-06-22T02:43:14.489Z,53.52
2023-06-22T02:45:40.930Z,53.48
2023-06-22T02:48:07.510Z,53.53
2023-06-22T02:50:34.656Z,53.59
2023-06-22T02:53:01.398Z,53.62
2023-06-22T02:55:30.763Z,53.68
2023-06-22T02:58:00.577Z,53.91
2023-06-22T03:00:32.029Z,53.69
2023-06-22T03:02:59.342Z,53.73
2023-06-22T03:05:25.954Z,53.72
2023-06-22T03:07:53.211Z,53.78
2023-06-22T03:10:19.687Z,53.81
2023-06-22T03:12:46.246Z,53.66
2023-06-22T03:15:13.702Z,53.68
2023-06-22T03:17:42.353Z,53.98
2023-06-22T03:20:11.353Z,53.99
2023-06-22T03:22:39.322Z,54.16
2023-06-22T03:25:11.396Z,53.97
2023-06-22T03:27:43.380Z,53.84
2023-06-22T03:30:12.576Z,54.04
2023-06-22T03:32:40.386Z,54.12
2023-06-22T03:35:07.589Z,54.10
2023-06-22T03:37:36.499Z,54.40
2023-06-22T03:40:06.257Z,54.43
2023-06-22T03:42:35.687Z,54.45
2023-06-22T03:45:04.527Z,54.70
2023-06-22T03:47:31.198Z,54.39
2023-06-22T03:49:58.998Z,54.41
2023-06-22T03:52:26.362Z,54.67
2023-06-22T03:54:53.047Z,54.66
2023-06-22T03:57:19.600Z,54.64
2023-06-22T03:59:46.155Z,54.55
2023-06-22T04:02:13.072Z,54.78
2023-06-22T04:04:40.417Z,54.69
2023-06-22T04:07:07.401Z,54.39
2023-06-22T04:09:34.152Z,54.59
2023-06-22T04:12:00.576Z,54.83
2023-06-22T04:14:27.037Z,54.54
2023-06-22T04:16:53.503Z,54.76
2023-06-22T04:19:19.979Z,54.94
2023-06-22T04:21:46.761Z,54.80
2023-06-22T04:24:13.522Z,54.98
2023-06-22T04:26:42.462Z,54.64
2023-06-22T04:29:09.771Z,54.59
2023-06-22T04:31:39.515Z,54.79
2023-06-22T04:34:07.613Z,55.03
2023-06-22T04:36:39.098Z,54.78
2023-06-22T04:39:10.908Z,54.66
2023-06-22T04:41:44.929Z,54.98
2023-06-22T04:44:24.692Z,54.88
2023-06-22T04:47:03.240Z,55.18
2023-06-22T04:49:34.348Z,55.19
2023-06-22T04:52:02.111Z,55.21
2023-06-22T04:54:28.584Z,55.12
2023-06-22T04:56:57.508Z,55.23
2023-06-22T04:59:29.036Z,55.30
2023-06-22T05:01:56.557Z,55.17
2023-06-22T05:04:26.829Z,55.39
2023-06-22T05:06:53.645Z,55.39
2023-06-22T05:09:20.211Z,55.43
2023-06-22T05:11:47.105Z,55.35
2023-06-22T05:14:14.390Z,55.38
2023-06-22T05:16:43.039Z,55.52
2023-06-22T05:19:10.133Z,55.36
2023-06-22T05:21:36.816Z,55.47
2023-06-22T05:24:03.959Z,55.42
2023-06-22T05:26:32.017Z,55.66
2023-06-22T05:28:58.779Z,55.33
2023-06-22T05:31:25.505Z,55.58
2023-06-22T05:33:54.681Z,55.23
2023-06-22T05:36:22.472Z,54.88
2023-06-22T05:38:48.917Z,55.07
2023-06-22T05:41:15.395Z,55.09
2023-06-22T05:43:42.076Z,55.14
2023-06-22T05:46:08.678Z,55.33
2023-06-22T05:48:35.144Z,54.99
2023-06-22T05:51:01.630Z,55.10
2023-06-22T05:53:28.311Z,54.98
2023-06-22T05:55:54.838Z,54.79
2023-06-22T05:58:21.405Z,54.82
2023-06-22T06:00:48.263Z,54.71
2023-06-22T06:03:18.084Z,54.78
2023-06-22T06:05:45.973Z,54.63
2023-06-22T06:08:13.214Z,54.81
2023-06-22T06:10:40.419Z,54.75
2023-06-22T06:13:07.174Z,54.58
2023-06-22T06:15:34.771Z,54.81
2023-06-22T06:18:01.382Z,54.54
2023-06-22T06:20:31.230Z,54.68
2023-06-22T06:22:58.267Z,54.68
2023-06-22T06:25:24.833Z,54.57
2023-06-22T06:27:52.611Z,54.65
2023-06-22T06:30:19.963Z,54.49
2023-06-22T06:32:47.836Z,54.48
2023-06-22T06:35:17.413Z,54.55
2023-06-22T06:37:46.190Z,54.51
2023-06-22T06:40:14.351Z,54.42
2023-06-22T06:42:43.190Z,54.58
2023-06-22T06:45:10.597Z,54.54
2023-06-22T06:47:37.383Z,54.57
2023-06-22T06:50:05.786Z,54.43
2023-06-22T06:52:32.289Z,54.59
2023-06-22T06:54:58.761Z,54.68
2023-06-22T06:57:29.745Z,54.60
2023-06-22T06:59:57.374Z,54.63
2023-06-22T07:02:24.975Z,54.87
2023-06-22T07:04:51.717Z,54.87
2023-06-22T07:07:18.173Z,54.64
2023-06-22T07:09:44.627Z,54.71
2023-06-22T07:12:11.173Z,54.63
2023-06-22T07:14:37.661Z,54.75
2023-06-22T07:17:04.476Z,54.91
2023-06-22T07:19:32.385Z,54.76
2023-06-22T07:21:58.820Z,54.77
2023-06-22T07:24:25.825Z,54.40
2023-06-22T07:26:52.668Z,54.78
2023-06-22T07:29:20.987Z,54.75
2023-06-22T07:31:48.424Z,54.69
2023-06-22T07:34:14.978Z,54.76
2023-06-22T07:36:41.526Z,54.68
2023-06-22T07:39:08.026Z,55.03
2023-06-22T07:41:34.481Z,54.75
2023-06-22T07:44:01.054Z,54.86
2023-06-22T07:46:27.750Z,54.87
2023-06-22T07:48:56.506Z,55.02
2023-06-22T07:51:23.407Z,54.83
2023-06-22T07:53:49.890Z,54.87
2023-06-22T07:56:20.071Z,54.94
2023-06-22T07:58:47.293Z,54.71
2023-06-22T08:01:15.122Z,54.56
2023-06-22T08:03:41.813Z,54.33
2023-06-22T08:06:10.202Z,54.49
2023-06-22T08:08:37.676Z,54.38
2023-06-22T08:11:04.249Z,54.65
2023-06-22T08:13:30.750Z,54.47
2023-06-22T08:15:57.216Z,54.25
2023-06-22T08:18:23.648Z,54.16
2023-06-22T08:20:50.813Z,54.08
2023-06-22T08:23:17.555Z,54.40
2023-06-22T08:25:44.103Z,54.27
2023-06-22T08:28:10.651Z,54.27
2023-06-22T08:30:37.141Z,53.99
2023-06-22T08:33:03.990Z,54.30
2023-06-22T08:35:31.557Z,53.93
2023-06-22T08:37:59.110Z,53.83
2023-06-22T08:40:25.646Z,54.02
2023-06-22T08:42:52.164Z,53.85
2023-06-22T08:45:18.828Z,54.13
2023-06-22T08:47:45.336Z,54.13
2023-06-22T08:50:13.593Z,53.80
2023-06-22T08:52:44.255Z,53.89
2023-06-22T08:55:11.785Z,53.98
2023-06-22T08:57:40.120Z,54.01
2023-06-22T09:00:17.075Z,53.84
2023-06-22T09:02:45.024Z,53.62
2023-06-22T09:05:11.939Z,53.47
2023-06-22T09:07:38.894Z,53.61
2023-06-22T09:10:06.440Z,53.56
2023-06-22T09:12:33.820Z,53.27
2023-06-22T09:15:01.667Z,53.21
2023-06-22T09:17:28.285Z,53.30
2023-06-22T09:19:54.954Z,53.23
2023-06-22T09:22:21.821Z,53.11
2023-06-22T09:24:48.357Z,53.02
2023-06-22T09:27:14.915Z,53.36
2023-06-22T09:29:41.392Z,53.01
2023-06-22T09:32:08.333Z,53.07
2023-06-22T09:34:34.909Z,52.86
2023-06-22T09:37:04.099Z,53.12
2023-06-22T09:39:30.566Z,53.20
2023-06-22T09:42:01.355Z,52.36
2023-06-22T09:44:27.826Z,52.86
2023-06-22T09:46:54.280Z,52.57
2023-06-22T09:49:30.836Z,52.70
2023-06-22T09:52:07.563Z,52.63
2023-06-22T09:54:34.125Z,52.53
2023-06-22T09:57:00.652Z,52.45
2023-06-22T09:59:28.102Z,52.20
2023-06-22T10:01:54.709Z,52.02
2023-06-22T10:04:21.289Z,52.06
2023-06-22T10:06:48.703Z,51.99
2023-06-22T10:09:15.158Z,51.65
2023-06-22T10:11:41.636Z,52.18
2023-06-22T10:14:08.079Z,51.84
2023-06-22T10:16:36.531Z,51.86
2023-06-22T10:19:03.180Z,51.76
2023-06-22T10:21:30.129Z,51.73
2023-06-22T10:23:56.883Z,51.71
2023-06-22T10:26:23.551Z,51.88
2023-06-22T10:28:55.373Z,51.63
2023-06-22T10:31:28.547Z,51.72
2023-06-22T10:33:56.225Z,51.83
2023-06-22T10:36:23.853Z,51.67
2023-06-22T10:38:50.916Z,51.67
2023-06-22T10:41:18.087Z,51.98
2023-06-22T10:43:44.572Z,51.54
2023-06-22T10:46:11.082Z,51.82
2023-06-22T10:48:37.560Z,51.62
2023-06-22T10:51:04.013Z,51.74
2023-06-22T10:53:30.473Z,51.57
2023-06-22T10:55:57.939Z,51.77
2023-06-22T10:58:24.668Z,51.55
2023-06-22T11:00:51.147Z,51.81
2023-06-22T11:03:17.742Z,51.60
2023-06-22T11:05:44.403Z,51.65
2023-06-22T11:08:10.877Z,51.62
2023-06-22T11:10:37.543Z,51.80
2023-06-22T11:13:05.280Z,51.64
2023-06-22T11:15:31.766Z,51.55
2023-06-22T11:17:58.317Z,51.67
2023-06-22T11:20:24.823Z,51.41
2023-06-22T11:22:51.270Z,51.53
2023-06-22T11:25:17.868Z,51.65
2023-06-22T11:27:44.315Z,51.73
2023-06-22T11:30:11.118Z,51.32
2023-06-22T11:32:37.722Z,51.34
2023-06-22T11:35:04.558Z,51.37
2023-06-22T11:37:31.033Z,51.47
2023-06-22T11:40:05.993Z,51.11
2023-06-22T11:42:33.442Z,51.42
2023-06-22T11:44:59.996Z,51.33
2023-06-22T11:47:26.576Z,51.45
2023-06-22T11:49:53.090Z,51.03
2023-06-22T11:52:20.397Z,51.24
2023-06-22T11:54:46.913Z,51.09
2023-06-22T11:57:13.734Z,51.36
2023-06-22T11:59:40.268Z,50.89
2023-06-22T12:02:08.527Z,51.22
2023-06-22T12:04:35.111Z,50.82
2023-06-22T12:07:01.742Z,51.02
2023-06-22T12:09:28.221Z,50.80
2023-06-22T12:11:54.819Z,50.74
2023-06-22T12:14:21.371Z,50.76
2023-06-22T12:16:47.847Z,51.19
2023-06-22T12:19:14.280Z,50.82
2023-06-22T12:21:41.836Z,50.70
2023-06-22T12:24:08.426Z,50.64
2023-06-22T12:26:34.851Z,50.81
2023-06-22T12:29:01.310Z,51.00
2023-06-22T12:31:27.775Z,50.64
2023-06-22T12:33:54.384Z,50.93
2023-06-22T12:36:20.863Z,50.86
2023-06-22T12:38:47.338Z,50.55
2023-06-22T12:41:13.856Z,50.57
2023-06-22T12:43:41.234Z,50.76
2023-06-22T12:46:07.717Z,50.66
2023-06-22T12:48:34.179Z,50.69
2023-06-22T12:51:00.655Z,50.71
2023-06-22T12:53:28.366Z,50.64
2023-06-22T12:55:55.255Z,50.67
2023-06-22T12:58:21.722Z,50.38
2023-06-22T13:00:48.196Z,50.83
2023-06-22T13:03:14.952Z,50.42
2023-06-22T13:05:41.537Z,50.69
2023-06-22T13:08:12.678Z,50.35
2023-06-22T13:10:39.650Z,50.23
2023-06-22T13:13:06.129Z,50.44
2023-06-22T13:15:32.935Z,50.21
2023-06-22T13:18:00.078Z,50.27
2023-06-22T13:20:26.704Z,50.49
2023-06-22T13:22:54.660Z,50.30
2023-06-22T13:25:24.088Z,50.46
2023-06-22T13:27:50.624Z,50.20
2023-06-22T13:30:17.185Z,50.58
2023-06-22T13:32:44.044Z,50.52
2023-06-22T13:35:12.036Z,50.23
2023-06-22T13:37:38.566Z,50.48
2023-06-22T13:40:08.953Z,50.09
2023-06-22T13:42:35.661Z,50.37
2023-06-22T13:45:02.923Z,50.54
2023-06-22T13:47:31.352Z,50.28
2023-06-22T13:49:58.864Z,50.41
2023-06-22T13:52:25.844Z,50.55
2023-06-22T13:54:52.466Z,50.32
2023-06-22T13:57:18.938Z,50.39
2023-06-22T13:59:45.440Z,50.57
2023-06-22T14:02:11.889Z,50.25
2023-06-22T14:04:39.318Z,50.48
2023-06-22T14:07:05.907Z,50.66
2023-06-22T14:09:32.342Z,50.20
2023-06-22T14:11:58.829Z,50.45
2023-06-22T14:14:25.465Z,50.69
2023-06-22T14:16:51.994Z,50.42
2023-06-22T14:19:19.500Z,50.49
2023-06-22T14:21:46.070Z,50.38
2023-06-22T14:24:12.559Z,50.40
2023-06-22T14:26:39.056Z,50.44
2023-06-22T14:29:05.501Z,50.34
2023-06-22T14:31:32.029Z,50.31
2023-06-22T14:33:58.600Z,50.30
2023-06-22T14:36:25.098Z,50.33
2023-06-22T14:38:51.594Z,50.22
2023-06-22T14:41:18.871Z,50.30
2023-06-22T14:43:50.091Z,50.30
2023-06-22T14:46:18.633Z,50.41
2023-06-22T14:48:45.931Z,50.25
2023-06-22T14:51:16.530Z,50.14
2023-06-22T14:53:46.249Z,50.16
2023-06-22T14:56:13.885Z,50.11
2023-06-22T14:58:42.166Z,50.17
2023-06-22T15:01:09.537Z,49.86
2023-06-22T15:03:37.051Z,49.95
2023-06-22T15:06:04.937Z,49.71
2023-06-22T15:08:31.486Z,49.88
2023-06-22T15:11:02.643Z,49.68
2023-06-22T15:13:31.279Z,49.45
2023-06-22T15:15:57.768Z,49.49
2023-06-22T15:18:24.279Z,49.71
2023-06-22T15:20:50.765Z,49.64
2023-06-22T15:23:18.401Z,49.63
2023-06-22T15:25:45.935Z,49.56
2023-06-22T15:28:13.010Z,49.68
2023-06-22T15:30:39.703Z,49.76
2023-06-22T15:33:06.278Z,49.73
2023-06-22T15:35:32.830Z,49.69
2023-06-22T15:38:00.490Z,49.58
2023-06-22T15:40:27.010Z,49.48
2023-06-22T15:42:54.176Z,49.82
2023-06-22T15:45:20.977Z,49.81
2023-06-22T15:47:47.615Z,49.70
2023-06-22T15:50:14.469Z,49.64
2023-06-22T15:52:41.933Z,49.56
2023-06-22T15:55:10.465Z,49.32
2023-06-22T15:57:37.029Z,49.46
2023-06-22T16:00:05.654Z,49.61
2023-06-22T16:02:33.872Z,49.79
2023-06-22T16:05:02.099Z,49.48
2023-06-22T16:07:28.592Z,49.99
2023-06-22T16:09:55.277Z,49.80
2023-06-22T16:12:21.784Z,50.15
2023-06-22T16:14:48.213Z,49.98
2023-06-22T16:17:14.704Z,50.06
2023-06-22T16:19:41.144Z,50.27
2023-06-22T16:22:07.665Z,50.19
2023-06-22T16:24:34.137Z,50.20
2023-06-22T16:27:00.612Z,50.53
2023-06-22T16:29:27.156Z,50.63
2023-06-22T16:31:53.621Z,50.71
2023-06-22T16:34:20.132Z,50.61
2023-06-22T16:36:46.583Z,50.56
2023-06-22T16:39:13.074Z,51.11
2023-06-22T16:41:39.513Z,51.05
2023-06-22T16:44:07.602Z,51.00
2023-06-22T16:46:35.525Z,50.99
2023-06-22T16:49:02.095Z,51.46
2023-06-22T16:51:28.526Z,51.38
2023-06-22T16:53:59.465Z,51.53
2023-06-22T16:56:27.562Z,51.65
2023-06-22T16:59:06.971Z,51.96
2023-06-22T17:01:35.618Z,52.04
2023-06-22T17:04:10.032Z,52.38
2023-06-22T17:06:42.591Z,52.64
2023-06-22T17:09:13.999Z,52.95
2023-06-22T17:11:41.287Z,53.29
2023-06-22T17:14:07.892Z,53.19
2023-06-22T17:16:36.245Z,53.35
2023-06-22T17:19:06.938Z,53.13
2023-06-22T17:21:34.230Z,53.67
2023-06-22T17:24:02.135Z,53.41
2023-06-22T17:26:28.653Z,53.73
2023-06-22T17:29:01.975Z,53.68
2023-06-22T17:31:44.631Z,53.61
2023-06-22T17:34:16.024Z,53.53
2023-06-22T17:36:50.873Z,53.64
2023-06-22T17:39:22.590Z,53.49
2023-06-22T17:41:50.456Z,53.31
2023-06-22T17:44:24.254Z,53.43
2023-06-22T17:46:59.234Z,54.18
2023-06-22T17:49:30.888Z,53.95
2023-06-22T17:51:57.905Z,53.94
2023-06-22T17:54:31.261Z,54.43
2023-06-22T17:57:17.580Z,54.23
2023-06-22T17:59:51.279Z,55.09
2023-06-22T18:02:25.230Z,54.44
2023-06-22T18:04:51.900Z,54.52
2023-06-22T18:07:18.427Z,54.25
2023-06-22T18:09:46.392Z,54.33
2023-06-22T18:12:13.803Z,54.05
2023-06-22T18:14:42.727Z,54.04
2023-06-22T18:17:09.812Z,53.79
2023-06-22T18:19:38.984Z,53.99
2023-06-22T18:22:06.394Z,53.84
2023-06-22T18:24:34.339Z,53.78
2023-06-22T18:27:03.449Z,52.95
2023-06-22T18:29:31.759Z,53.10
2023-06-22T18:31:58.345Z,52.90
2023-06-22T18:34:26.312Z,52.55
2023-06-22T18:36:55.854Z,52.59
2023-06-22T18:39:23.606Z,53.20
2023-06-22T18:41:56.207Z,52.80
2023-06-22T18:44:27.272Z,52.75
2023-06-22T18:46:58.575Z,52.47
2023-06-22T18:49:26.776Z,52.57
2023-06-22T18:51:56.266Z,52.75
2023-06-22T18:54:36.229Z,53.23
2023-06-22T18:57:12.697Z,53.17
2023-06-22T18:59:43.965Z,53.23
2023-06-22T19:02:13.781Z,53.35
2023-06-22T19:04:43.149Z,52.99
2023-06-22T19:07:10.417Z,53.31
2023-06-22T19:09:37.389Z,53.28
2023-06-22T19:12:20.885Z,53.26
2023-06-22T19:15:16.859Z,53.61
2023-06-22T19:17:44.146Z,53.43
2023-06-22T19:20:12.484Z,53.72
2023-06-22T19:22:46.879Z,53.05
2023-06-22T19:25:20.897Z,53.25
2023-06-22T19:27:55.687Z,53.71
2023-06-22T19:30:22.818Z,53.73
2023-06-22T19:32:50.094Z,53.97
2023-06-22T19:35:19.391Z,53.61
2023-06-22T19:37:47.091Z,53.81
2023-06-22T19:40:15.247Z,53.92
2023-06-22T19:42:44.957Z,53.51
2023-06-22T19:45:17.671Z,53.71
2023-06-22T19:47:46.587Z,53.71
2023-06-22T19:50:13.419Z,53.46
2023-06-22T19:52:42.052Z,53.59
2023-06-22T19:55:10.514Z,53.70
2023-06-22T19:57:37.950Z,53.84
2023-06-22T20:00:13.281Z,54.05
2023-06-22T20:02:44.622Z,54.01
2023-06-22T20:05:13.758Z,54.25
2023-06-22T20:07:42.998Z,54.18
2023-06-22T20:10:15.388Z,54.12
2023-06-22T20:12:42.139Z,54.06
2023-06-22T20:15:28.102Z,53.94
2023-06-22T20:18:14.110Z,54.27
2023-06-22T20:20:46.046Z,54.45
2023-06-22T20:23:18.105Z,54.66
2023-06-22T20:25:46.270Z,54.26
2023-06-22T20:28:16.736Z,54.55
2023-06-22T20:31:07.393Z,54.62
2023-06-22T20:33:35.084Z,54.76
2023-06-22T20:36:02.314Z,54.86
2023-06-22T20:38:29.521Z,54.86
2023-06-22T20:40:56.902Z,55.09
2023-06-22T20:43:24.813Z,54.77
2023-06-22T20:45:57.371Z,54.96
2023-06-22T20:48:38.015Z,55.00
2023-06-22T20:51:05.685Z,55.40
2023-06-22T20:53:32.820Z,55.13
2023-06-22T20:55:59.690Z,55.42
2023-06-22T20:58:26.149Z,55.25
2023-06-22T21:00:52.617Z,54.83
2023-06-22T21:03:19.223Z,55.40
2023-06-22T21:05:45.900Z,55.36
2023-06-22T21:08:12.395Z,55.39
2023-06-22T21:10:38.825Z,55.38
2023-06-22T21:13:05.295Z,55.63
2023-06-22T21:15:31.994Z,55.16
2023-06-22T21:17:58.655Z,55.01
2023-06-22T21:20:25.148Z,55.67
2023-06-22T21:22:51.625Z,55.53
2023-06-22T21:25:18.082Z,55.66
2023-06-22T21:27:44.610Z,56.00
2023-06-22T21:30:12.842Z,55.90
2023-06-22T21:32:42.849Z,55.82
2023-06-22T21:35:13.035Z,55.89
2023-06-22T21:37:39.955Z,56.14
2023-06-22T21:40:07.915Z,56.46
2023-06-22T21:42:34.485Z,56.43
2023-06-22T21:45:01.265Z,56.75
2023-06-22T21:47:27.835Z,56.62
2023-06-22T21:49:54.380Z,56.84
2023-06-22T21:52:21.208Z,56.39
2023-06-22T21:54:48.091Z,56.61
2023-06-22T21:57:14.661Z,56.72
2023-06-22T21:59:41.212Z,56.79
2023-06-22T22:02:07.904Z,56.60
2023-06-22T22:04:34.445Z,56.47
2023-06-22T22:07:00.903Z,56.60
2023-06-22T22:09:27.340Z,56.80
2023-06-22T22:11:53.808Z,56.82
2023-06-22T22:14:20.371Z,57.19
2023-06-22T22:16:47.209Z,57.04
2023-06-22T22:19:15.780Z,57.05
2023-06-22T22:21:43.585Z,56.84
2023-06-22T22:24:10.413Z,57.19
2023-06-22T22:26:36.920Z,57.32
2023-06-22T22:29:06.390Z,56.98
2023-06-22T22:31:39.569Z,57.03
2023-06-22T22:34:07.201Z,56.97
2023-06-22T22:36:34.282Z,57.29
2023-06-22T22:39:00.869Z,56.99
2023-06-22T22:41:27.991Z,56.83
2023-06-22T22:43:59.166Z,56.91
2023-06-22T22:46:26.851Z,57.03
2023-06-22T22:48:53.391Z,57.13
2023-06-22T22:51:20.044Z,57.08
2023-06-22T22:53:46.736Z,57.41
2023-06-22T22:56:13.357Z,57.27
2023-06-22T22:58:39.866Z,57.29
2023-06-22T23:01:06.446Z,57.46
2023-06-22T23:03:33.009Z,57.64
2023-06-22T23:05:59.975Z,57.41
2023-06-22T23:08:27.617Z,57.67
2023-06-22T23:10:54.504Z,57.71
2023-06-22T23:13:21.036Z,57.76
2023-06-22T23:15:47.508Z,57.97
2023-06-22T23:18:14.047Z,57.58
2023-06-22T23:20:40.496Z,57.52
2023-06-22T23:23:06.967Z,57.66
2023-06-22T23:25:35.392Z,57.31
2023-06-22T23:28:02.439Z,57.17
2023-06-22T23:30:32.412Z,57.42
2023-06-22T23:32:58.936Z,57.76
2023-06-22T23:35:25.660Z,58.09
2023-06-22T23:37:53.676Z,57.79
2023-06-22T23:40:20.608Z,58.20
2023-06-22T23:42:48.516Z,58.51
2023-06-22T23:45:22.807Z,58.29
2023-06-22T23:47:50.478Z,58.03
2023-06-22T23:50:19.071Z,58.08
2023-06-22T23:52:52.310Z,58.52
2023-06-22T23:55:24.221Z,58.44
2023-06-22T23:57:58.154Z,58.64
